sensor_id;sensor_type;location;lat;lon;timestamp;temperature;humidity
6439;DHT22;3252;52.540;13.290;2024-02-15T00:01:50;20.60;95.30
6439;DHT22;3252;52.540;13.290;2024-02-15T00:03:52;20.60;95.30
6439;DHT22;3252;52.540;13.290;2024-02-15T00:05:54;20.50;95.30
6439;DHT22;3252;52.540;13.290;2024-02-15T00:07:56;20.50;95.30
6439;DHT22;3252;52.540;13.290;2024-02-15T00:09:57;20.50;95.30
6439;DHT22;3252;52.540;13.290;2024-02-15T00:11:59;20.50;95.40
6439;DHT22;3252;52.540;13.290;2024-02-15T00:14:03;20.50;95.40
6439;DHT22;3252;52.540;13.290;2024-02-15T00:16:04;20.50;95.40
6439;DHT22;3252;52.540;13.290;2024-02-15T00:18:07;20.50;95.40
6439;DHT22;3252;52.540;13.290;2024-02-15T00:20:09;20.50;95.50
6439;DHT22;3252;52.540;13.290;2024-02-15T00:22:11;20.50;95.50
6439;DHT22;3252;52.540;13.290;2024-02-15T00:24:13;20.50;95.50
6439;DHT22;3252;52.540;13.290;2024-02-15T00:26:16;20.50;95.50
6439;DHT22;3252;52.540;13.290;2024-02-15T00:28:18;20.50;95.50
6439;DHT22;3252;52.540;13.290;2024-02-15T00:30:22;20.40;95.50
6439;DHT22;3252;52.540;13.290;2024-02-15T00:32:24;20.40;95.50
6439;DHT22;3252;52.540;13.290;2024-02-15T00:34:26;20.40;95.80
6439;DHT22;3252;52.540;13.290;2024-02-15T00:36:28;20.40;95.50
6439;DHT22;3252;52.540;13.290;2024-02-15T00:38:31;20.40;95.50
6439;DHT22;3252;52.540;13.290;2024-02-15T00:40:33;20.40;95.50
6439;DHT22;3252;52.540;13.290;2024-02-15T00:42:35;20.40;95.60
6439;DHT22;3252;52.540;13.290;2024-02-15T00:44:37;20.30;95.50
6439;DHT22;3252;52.540;13.290;2024-02-15T00:46:40;20.30;95.50
6439;DHT22;3252;52.540;13.290;2024-02-15T00:48:43;20.30;95.60
6439;DHT22;3252;52.540;13.290;2024-02-15T00:50:45;20.30;95.60
6439;DHT22;3252;52.540;13.290;2024-02-15T00:52:47;20.30;95.60
6439;DHT22;3252;52.540;13.290;2024-02-15T00:54:50;20.30;95.60
6439;DHT22;3252;52.540;13.290;2024-02-15T00:56:52;20.30;95.60
6439;DHT22;3252;52.540;13.290;2024-02-15T00:58:54;20.30;95.60
6439;DHT22;3252;52.540;13.290;2024-02-15T01:00:55;20.20;95.60
6439;DHT22;3252;52.540;13.290;2024-02-15T01:02:58;20.20;95.60
6439;DHT22;3252;52.540;13.290;2024-02-15T01:05:01;20.20;95.60
6439;DHT22;3252;52.540;13.290;2024-02-15T01:07:04;20.20;95.60
6439;DHT22;3252;52.540;13.290;2024-02-15T01:09:06;20.20;95.60
6439;DHT22;3252;52.540;13.290;2024-02-15T01:11:09;20.20;95.60
6439;DHT22;3252;52.540;13.290;2024-02-15T01:13:11;20.20;95.60
6439;DHT22;3252;52.540;13.290;2024-02-15T01:15:13;20.20;95.70
6439;DHT22;3252;52.540;13.290;2024-02-15T01:17:18;20.20;95.70
6439;DHT22;3252;52.540;13.290;2024-02-15T01:19:21;20.20;95.70
6439;DHT22;3252;52.540;13.290;2024-02-15T01:21:23;20.20;95.70
6439;DHT22;3252;52.540;13.290;2024-02-15T01:23:25;20.20;95.70
6439;DHT22;3252;52.540;13.290;2024-02-15T01:25:26;20.20;95.70
6439;DHT22;3252;52.540;13.290;2024-02-15T01:27:29;20.20;95.70
6439;DHT22;3252;52.540;13.290;2024-02-15T01:29:30;20.10;95.70
6439;DHT22;3252;52.540;13.290;2024-02-15T01:31:32;20.10;95.70
6439;DHT22;3252;52.540;13.290;2024-02-15T01:33:34;20.10;95.70
6439;DHT22;3252;52.540;13.290;2024-02-15T01:35:38;20.10;95.70
6439;DHT22;3252;52.540;13.290;2024-02-15T01:37:40;20.10;95.70
6439;DHT22;3252;52.540;13.290;2024-02-15T01:39:43;20.10;95.70
6439;DHT22;3252;52.540;13.290;2024-02-15T01:41:48;20.10;95.70
6439;DHT22;3252;52.540;13.290;2024-02-15T01:43:51;20.10;95.70
6439;DHT22;3252;52.540;13.290;2024-02-15T01:45:53;20.10;95.70
6439;DHT22;3252;52.540;13.290;2024-02-15T01:47:56;20.10;95.70
6439;DHT22;3252;52.540;13.290;2024-02-15T01:49:58;20.10;95.70
6439;DHT22;3252;52.540;13.290;2024-02-15T01:52:04;20.10;95.70
6439;DHT22;3252;52.540;13.290;2024-02-15T01:54:07;20.10;95.70
6439;DHT22;3252;52.540;13.290;2024-02-15T01:56:13;20.10;95.70
6439;DHT22;3252;52.540;13.290;2024-02-15T01:58:15;20.10;95.70
6439;DHT22;3252;52.540;13.290;2024-02-15T02:00:20;20.00;95.70
6439;DHT22;3252;52.540;13.290;2024-02-15T02:02:32;20.00;95.70
6439;DHT22;3252;52.540;13.290;2024-02-15T02:04:36;20.00;95.70
6439;DHT22;3252;52.540;13.290;2024-02-15T02:06:38;20.00;95.70
6439;DHT22;3252;52.540;13.290;2024-02-15T02:08:42;20.00;95.70
6439;DHT22;3252;52.540;13.290;2024-02-15T02:10:44;20.00;95.70
6439;DHT22;3252;52.540;13.290;2024-02-15T02:12:47;20.00;95.70
6439;DHT22;3252;52.540;13.290;2024-02-15T02:14:50;20.00;95.70
6439;DHT22;3252;52.540;13.290;2024-02-15T02:16:52;20.00;95.70
6439;DHT22;3252;52.540;13.290;2024-02-15T02:18:56;20.00;95.70
6439;DHT22;3252;52.540;13.290;2024-02-15T02:20:57;20.00;95.70
6439;DHT22;3252;52.540;13.290;2024-02-15T02:23:03;20.00;95.70
6439;DHT22;3252;52.540;13.290;2024-02-15T02:25:09;20.00;95.80
6439;DHT22;3252;52.540;13.290;2024-02-15T02:27:13;20.00;95.80
6439;DHT22;3252;52.540;13.290;2024-02-15T02:29:15;19.90;95.70
6439;DHT22;3252;52.540;13.290;2024-02-15T02:31:17;20.00;95.80
6439;DHT22;3252;52.540;13.290;2024-02-15T02:33:19;19.90;95.70
6439;DHT22;3252;52.540;13.290;2024-02-15T02:35:23;19.90;95.70
6439;DHT22;3252;52.540;13.290;2024-02-15T02:37:25;19.90;95.70
6439;DHT22;3252;52.540;13.290;2024-02-15T02:39:27;19.90;95.70
6439;DHT22;3252;52.540;13.290;2024-02-15T02:41:33;20.00;95.80
6439;DHT22;3252;52.540;13.290;2024-02-15T02:43:35;19.90;95.70
6439;DHT22;3252;52.540;13.290;2024-02-15T02:45:38;19.90;95.70
6439;DHT22;3252;52.540;13.290;2024-02-15T02:47:40;19.90;95.70
6439;DHT22;3252;52.540;13.290;2024-02-15T02:49:42;19.90;95.70
6439;DHT22;3252;52.540;13.290;2024-02-15T02:51:44;19.90;95.70
6439;DHT22;3252;52.540;13.290;2024-02-15T02:53:47;19.90;95.80
6439;DHT22;3252;52.540;13.290;2024-02-15T02:55:49;19.90;95.80
6439;DHT22;3252;52.540;13.290;2024-02-15T02:57:53;19.90;95.80
6439;DHT22;3252;52.540;13.290;2024-02-15T02:59:55;19.90;95.80
6439;DHT22;3252;52.540;13.290;2024-02-15T03:01:57;19.90;95.80
6439;DHT22;3252;52.540;13.290;2024-02-15T03:03:59;19.90;95.80
6439;DHT22;3252;52.540;13.290;2024-02-15T03:06:02;19.80;95.70
6439;DHT22;3252;52.540;13.290;2024-02-15T03:08:05;19.80;95.70
6439;DHT22;3252;52.540;13.290;2024-02-15T03:10:06;19.80;95.70
6439;DHT22;3252;52.540;13.290;2024-02-15T03:12:09;19.80;95.70
6439;DHT22;3252;52.540;13.290;2024-02-15T03:14:11;19.80;95.70
6439;DHT22;3252;52.540;13.290;2024-02-15T03:16:14;19.80;95.70
6439;DHT22;3252;52.540;13.290;2024-02-15T03:18:15;19.80;95.70
6439;DHT22;3252;52.540;13.290;2024-02-15T03:20:18;19.80;96.00
6439;DHT22;3252;52.540;13.290;2024-02-15T03:22:24;19.80;95.70
6439;DHT22;3252;52.540;13.290;2024-02-15T03:24:26;19.80;95.70
6439;DHT22;3252;52.540;13.290;2024-02-15T03:26:32;19.80;95.70
6439;DHT22;3252;52.540;13.290;2024-02-15T03:28:37;19.80;95.70
6439;DHT22;3252;52.540;13.290;2024-02-15T03:30:42;19.80;95.70
6439;DHT22;3252;52.540;13.290;2024-02-15T03:32:45;19.80;95.70
6439;DHT22;3252;52.540;13.290;2024-02-15T03:34:46;19.80;95.70
6439;DHT22;3252;52.540;13.290;2024-02-15T03:36:48;19.80;95.80
6439;DHT22;3252;52.540;13.290;2024-02-15T03:38:54;19.80;95.80
6439;DHT22;3252;52.540;13.290;2024-02-15T03:40:56;19.80;95.80
6439;DHT22;3252;52.540;13.290;2024-02-15T03:42:58;19.80;95.80
6439;DHT22;3252;52.540;13.290;2024-02-15T03:45:01;19.80;95.80
6439;DHT22;3252;52.540;13.290;2024-02-15T03:47:06;19.80;95.80
6439;DHT22;3252;52.540;13.290;2024-02-15T03:49:08;19.80;95.80
6439;DHT22;3252;52.540;13.290;2024-02-15T03:51:16;19.80;95.80
6439;DHT22;3252;52.540;13.290;2024-02-15T03:53:19;19.80;95.80
6439;DHT22;3252;52.540;13.290;2024-02-15T03:55:21;19.80;95.80
6439;DHT22;3252;52.540;13.290;2024-02-15T03:57:26;19.80;96.00
6439;DHT22;3252;52.540;13.290;2024-02-15T03:59:28;19.80;95.80
6439;DHT22;3252;52.540;13.290;2024-02-15T04:01:33;19.80;95.80
6439;DHT22;3252;52.540;13.290;2024-02-15T04:03:36;19.80;95.80
6439;DHT22;3252;52.540;13.290;2024-02-15T04:05:39;19.70;95.70
6439;DHT22;3252;52.540;13.290;2024-02-15T04:07:41;19.70;95.70
6439;DHT22;3252;52.540;13.290;2024-02-15T04:09:44;19.70;95.70
6439;DHT22;3252;52.540;13.290;2024-02-15T04:11:47;19.70;95.80
6439;DHT22;3252;52.540;13.290;2024-02-15T04:13:53;19.70;95.80
6439;DHT22;3252;52.540;13.290;2024-02-15T04:15:58;19.70;95.80
6439;DHT22;3252;52.540;13.290;2024-02-15T04:18:00;19.70;95.80
6439;DHT22;3252;52.540;13.290;2024-02-15T04:20:04;19.80;95.90
6439;DHT22;3252;52.540;13.290;2024-02-15T04:22:08;19.80;95.90
6439;DHT22;3252;52.540;13.290;2024-02-15T04:24:10;19.90;95.80
6439;DHT22;3252;52.540;13.290;2024-02-15T04:26:12;20.00;95.60
6439;DHT22;3252;52.540;13.290;2024-02-15T04:28:14;20.20;95.30
6439;DHT22;3252;52.540;13.290;2024-02-15T04:30:16;20.40;95.10
6439;DHT22;3252;52.540;13.290;2024-02-15T04:32:18;20.50;94.80
6439;DHT22;3252;52.540;13.290;2024-02-15T04:34:20;20.60;94.60
6439;DHT22;3252;52.540;13.290;2024-02-15T04:36:23;20.70;94.50
6439;DHT22;3252;52.540;13.290;2024-02-15T04:38:26;20.70;94.40
6439;DHT22;3252;52.540;13.290;2024-02-15T04:40:28;20.80;94.40
6439;DHT22;3252;52.540;13.290;2024-02-15T04:42:29;20.80;94.30
6439;DHT22;3252;52.540;13.290;2024-02-15T04:44:33;20.80;94.30
6439;DHT22;3252;52.540;13.290;2024-02-15T04:46:36;20.80;94.20
6439;DHT22;3252;52.540;13.290;2024-02-15T04:48:38;20.80;94.20
6439;DHT22;3252;52.540;13.290;2024-02-15T04:50:42;20.80;94.20
6439;DHT22;3252;52.540;13.290;2024-02-15T04:52:46;20.80;94.20
6439;DHT22;3252;52.540;13.290;2024-02-15T04:54:49;20.80;94.20
6439;DHT22;3252;52.540;13.290;2024-02-15T04:56:51;20.90;94.20
6439;DHT22;3252;52.540;13.290;2024-02-15T04:58:55;20.90;94.20
6439;DHT22;3252;52.540;13.290;2024-02-15T05:00:57;21.00;94.00
6439;DHT22;3252;52.540;13.290;2024-02-15T05:03:00;21.20;93.80
6439;DHT22;3252;52.540;13.290;2024-02-15T05:05:02;21.40;93.50
6439;DHT22;3252;52.540;13.290;2024-02-15T05:07:04;21.60;93.20
6439;DHT22;3252;52.540;13.290;2024-02-15T05:09:08;21.70;92.90
6439;DHT22;3252;52.540;13.290;2024-02-15T05:11:11;21.90;92.70
6439;DHT22;3252;52.540;13.290;2024-02-15T05:13:18;22.00;92.40
6439;DHT22;3252;52.540;13.290;2024-02-15T05:15:21;22.10;92.20
6439;DHT22;3252;52.540;13.290;2024-02-15T05:17:25;22.20;92.10
6439;DHT22;3252;52.540;13.290;2024-02-15T05:19:29;22.30;92.00
6439;DHT22;3252;52.540;13.290;2024-02-15T05:21:31;22.30;91.90
6439;DHT22;3252;52.540;13.290;2024-02-15T05:23:34;22.40;91.90
6439;DHT22;3252;52.540;13.290;2024-02-15T05:25:38;22.40;91.80
6439;DHT22;3252;52.540;13.290;2024-02-15T05:27:40;22.40;91.80
6439;DHT22;3252;52.540;13.290;2024-02-15T05:29:42;22.40;91.80
6439;DHT22;3252;52.540;13.290;2024-02-15T05:31:45;22.40;91.80
6439;DHT22;3252;52.540;13.290;2024-02-15T05:33:47;22.40;91.90
6439;DHT22;3252;52.540;13.290;2024-02-15T05:35:49;22.30;92.00
6439;DHT22;3252;52.540;13.290;2024-02-15T05:37:52;22.30;92.10
6439;DHT22;3252;52.540;13.290;2024-02-15T05:39:54;22.20;92.10
6439;DHT22;3252;52.540;13.290;2024-02-15T05:41:59;22.20;92.30
6439;DHT22;3252;52.540;13.290;2024-02-15T05:44:02;22.10;92.30
6439;DHT22;3252;52.540;13.290;2024-02-15T05:46:07;22.10;92.50
6439;DHT22;3252;52.540;13.290;2024-02-15T05:48:10;22.10;92.50
6439;DHT22;3252;52.540;13.290;2024-02-15T05:50:13;22.10;92.40
6439;DHT22;3252;52.540;13.290;2024-02-15T05:52:16;22.20;92.70
6439;DHT22;3252;52.540;13.290;2024-02-15T05:54:19;22.20;92.30
6439;DHT22;3252;52.540;13.290;2024-02-15T05:56:23;22.30;92.20
6439;DHT22;3252;52.540;13.290;2024-02-15T05:58:28;22.40;92.20
6439;DHT22;3252;52.540;13.290;2024-02-15T06:00:30;22.30;92.10
6439;DHT22;3252;52.540;13.290;2024-02-15T06:02:32;22.40;92.20
6439;DHT22;3252;52.540;13.290;2024-02-15T06:04:34;22.30;92.10
6439;DHT22;3252;52.540;13.290;2024-02-15T06:06:36;22.30;92.20
6439;DHT22;3252;52.540;13.290;2024-02-15T06:08:37;22.30;92.30
6439;DHT22;3252;52.540;13.290;2024-02-15T06:10:40;22.30;92.30
6439;DHT22;3252;52.540;13.290;2024-02-15T06:12:41;22.20;92.40
6439;DHT22;3252;52.540;13.290;2024-02-15T06:14:44;22.20;92.50
6439;DHT22;3252;52.540;13.290;2024-02-15T06:16:47;22.10;92.50
6439;DHT22;3252;52.540;13.290;2024-02-15T06:18:49;22.10;92.60
6439;DHT22;3252;52.540;13.290;2024-02-15T06:20:50;22.00;92.70
6439;DHT22;3252;52.540;13.290;2024-02-15T06:22:53;22.00;92.80
6439;DHT22;3252;52.540;13.290;2024-02-15T06:24:55;22.00;92.90
6439;DHT22;3252;52.540;13.290;2024-02-15T06:26:57;21.90;92.90
6439;DHT22;3252;52.540;13.290;2024-02-15T06:29:00;21.90;93.00
6439;DHT22;3252;52.540;13.290;2024-02-15T06:31:21;21.90;93.00
6439;DHT22;3252;52.540;13.290;2024-02-15T06:33:42;21.80;93.10
6439;DHT22;3252;52.540;13.290;2024-02-15T06:36:05;21.80;93.10
6439;DHT22;3252;52.540;13.290;2024-02-15T06:38:24;21.80;93.20
6439;DHT22;3252;52.540;13.290;2024-02-15T06:40:44;21.70;93.30
6439;DHT22;3252;52.540;13.290;2024-02-15T06:42:46;21.70;93.40
6439;DHT22;3252;52.540;13.290;2024-02-15T06:44:48;21.60;93.40
6439;DHT22;3252;52.540;13.290;2024-02-15T06:46:52;21.60;93.50
6439;DHT22;3252;52.540;13.290;2024-02-15T06:48:53;21.70;93.50
6439;DHT22;3252;52.540;13.290;2024-02-15T06:50:56;21.70;93.30
6439;DHT22;3252;52.540;13.290;2024-02-15T06:52:58;21.90;93.30
6439;DHT22;3252;52.540;13.290;2024-02-15T06:55:00;21.90;93.10
6439;DHT22;3252;52.540;13.290;2024-02-15T06:57:03;22.00;93.00
6439;DHT22;3252;52.540;13.290;2024-02-15T06:59:05;22.00;92.90
6439;DHT22;3252;52.540;13.290;2024-02-15T07:01:08;22.10;92.90
6439;DHT22;3252;52.540;13.290;2024-02-15T07:03:10;22.10;92.90
6439;DHT22;3252;52.540;13.290;2024-02-15T07:05:12;22.10;92.90
6439;DHT22;3252;52.540;13.290;2024-02-15T07:07:15;22.10;92.90
6439;DHT22;3252;52.540;13.290;2024-02-15T07:09:17;22.10;92.90
6439;DHT22;3252;52.540;13.290;2024-02-15T07:11:21;22.10;93.00
6439;DHT22;3252;52.540;13.290;2024-02-15T07:13:23;22.00;93.00
6439;DHT22;3252;52.540;13.290;2024-02-15T07:15:27;22.00;93.10
6439;DHT22;3252;52.540;13.290;2024-02-15T07:17:28;22.00;93.10
6439;DHT22;3252;52.540;13.290;2024-02-15T07:19:32;22.00;93.20
6439;DHT22;3252;52.540;13.290;2024-02-15T07:21:37;21.90;93.20
6439;DHT22;3252;52.540;13.290;2024-02-15T07:23:39;21.90;93.30
6439;DHT22;3252;52.540;13.290;2024-02-15T07:25:42;21.90;93.30
6439;DHT22;3252;52.540;13.290;2024-02-15T07:27:44;21.90;93.40
6439;DHT22;3252;52.540;13.290;2024-02-15T07:29:46;21.90;93.40
6439;DHT22;3252;52.540;13.290;2024-02-15T07:31:48;21.80;93.50
6439;DHT22;3252;52.540;13.290;2024-02-15T07:37:10;21.80;93.50
6439;DHT22;3252;52.540;13.290;2024-02-15T07:39:13;21.80;93.50
6439;DHT22;3252;52.540;13.290;2024-02-15T07:41:23;21.70;93.50
6439;DHT22;3252;52.540;13.290;2024-02-15T07:43:26;21.70;93.50
6439;DHT22;3252;52.540;13.290;2024-02-15T07:45:28;21.60;95.60
6439;DHT22;3252;52.540;13.290;2024-02-15T07:47:30;21.60;94.90
6439;DHT22;3252;52.540;13.290;2024-02-15T07:49:32;21.50;94.20
6439;DHT22;3252;52.540;13.290;2024-02-15T07:51:35;21.50;94.00
6439;DHT22;3252;52.540;13.290;2024-02-15T07:53:39;21.40;93.90
6439;DHT22;3252;52.540;13.290;2024-02-15T07:55:41;21.40;94.00
6439;DHT22;3252;52.540;13.290;2024-02-15T07:57:43;21.30;94.20
6439;DHT22;3252;52.540;13.290;2024-02-15T08:00:35;21.20;94.40
6439;DHT22;3252;52.540;13.290;2024-02-15T08:02:38;21.10;94.70
6439;DHT22;3252;52.540;13.290;2024-02-15T08:04:42;21.00;94.80
6439;DHT22;3252;52.540;13.290;2024-02-15T08:06:45;21.00;94.90
6439;DHT22;3252;52.540;13.290;2024-02-15T08:08:50;21.00;95.10
6439;DHT22;3252;52.540;13.290;2024-02-15T08:10:53;21.00;95.40
6439;DHT22;3252;52.540;13.290;2024-02-15T08:12:55;21.00;95.60
6439;DHT22;3252;52.540;13.290;2024-02-15T08:14:58;21.00;95.70
6439;DHT22;3252;52.540;13.290;2024-02-15T08:17:03;21.10;95.80
6439;DHT22;3252;52.540;13.290;2024-02-15T08:19:05;21.10;95.80
6439;DHT22;3252;52.540;13.290;2024-02-15T08:21:07;21.20;95.80
6439;DHT22;3252;52.540;13.290;2024-02-15T08:23:10;21.30;95.70
6439;DHT22;3252;52.540;13.290;2024-02-15T08:25:13;21.40;95.70
6439;DHT22;3252;52.540;13.290;2024-02-15T08:27:16;21.40;95.60
6439;DHT22;3252;52.540;13.290;2024-02-15T08:29:18;21.50;95.60
6439;DHT22;3252;52.540;13.290;2024-02-15T08:31:21;21.50;95.50
6439;DHT22;3252;52.540;13.290;2024-02-15T08:33:23;21.60;95.50
6439;DHT22;3252;52.540;13.290;2024-02-15T08:35:29;21.60;95.50
6439;DHT22;3252;52.540;13.290;2024-02-15T08:37:31;21.60;95.50
6439;DHT22;3252;52.540;13.290;2024-02-15T08:39:35;21.70;95.50
6439;DHT22;3252;52.540;13.290;2024-02-15T08:41:38;21.70;95.50
6439;DHT22;3252;52.540;13.290;2024-02-15T08:43:41;21.70;95.50
6439;DHT22;3252;52.540;13.290;2024-02-15T08:45:43;21.70;95.50
6439;DHT22;3252;52.540;13.290;2024-02-15T08:47:46;21.80;95.50
6439;DHT22;3252;52.540;13.290;2024-02-15T08:49:47;21.80;95.50
6439;DHT22;3252;52.540;13.290;2024-02-15T08:51:49;21.80;95.50
6439;DHT22;3252;52.540;13.290;2024-02-15T08:53:51;21.90;95.60
6439;DHT22;3252;52.540;13.290;2024-02-15T08:55:53;21.90;95.60
6439;DHT22;3252;52.540;13.290;2024-02-15T08:57:57;22.00;95.80
6439;DHT22;3252;52.540;13.290;2024-02-15T09:00:01;22.00;95.50
6439;DHT22;3252;52.540;13.290;2024-02-15T09:02:05;22.00;95.50
6439;DHT22;3252;52.540;13.290;2024-02-15T09:04:08;22.00;95.50
6439;DHT22;3252;52.540;13.290;2024-02-15T09:06:10;22.00;95.40
6439;DHT22;3252;52.540;13.290;2024-02-15T09:08:12;22.10;95.50
6439;DHT22;3252;52.540;13.290;2024-02-15T09:10:13;22.10;95.50
6439;DHT22;3252;52.540;13.290;2024-02-15T09:12:17;22.10;95.60
6439;DHT22;3252;52.540;13.290;2024-02-15T09:14:21;22.10;95.60
6439;DHT22;3252;52.540;13.290;2024-02-15T09:16:22;22.10;95.60
6439;DHT22;3252;52.540;13.290;2024-02-15T09:18:24;22.10;95.60
6439;DHT22;3252;52.540;13.290;2024-02-15T09:20:26;22.20;95.60
6439;DHT22;3252;52.540;13.290;2024-02-15T09:22:29;22.20;95.60
6439;DHT22;3252;52.540;13.290;2024-02-15T09:24:30;22.20;95.60
6439;DHT22;3252;52.540;13.290;2024-02-15T09:26:34;22.20;95.60
6439;DHT22;3252;52.540;13.290;2024-02-15T09:28:36;22.30;95.70
6439;DHT22;3252;52.540;13.290;2024-02-15T09:30:40;22.30;95.70
6439;DHT22;3252;52.540;13.290;2024-02-15T09:32:43;22.30;95.60
6439;DHT22;3252;52.540;13.290;2024-02-15T09:34:45;22.30;95.60
6439;DHT22;3252;52.540;13.290;2024-02-15T09:36:47;22.40;95.70
6439;DHT22;3252;52.540;13.290;2024-02-15T09:38:49;22.30;95.60
6439;DHT22;3252;52.540;13.290;2024-02-15T09:40:51;22.40;95.70
6439;DHT22;3252;52.540;13.290;2024-02-15T09:42:53;22.40;95.70
6439;DHT22;3252;52.540;13.290;2024-02-15T09:44:55;22.40;95.70
6439;DHT22;3252;52.540;13.290;2024-02-15T09:47:02;22.40;95.60
6439;DHT22;3252;52.540;13.290;2024-02-15T09:49:06;22.50;95.60
6439;DHT22;3252;52.540;13.290;2024-02-15T09:51:09;22.50;95.60
6439;DHT22;3252;52.540;13.290;2024-02-15T09:53:13;22.50;95.60
6439;DHT22;3252;52.540;13.290;2024-02-15T09:55:16;22.60;95.60
6439;DHT22;3252;52.540;13.290;2024-02-15T09:57:19;22.50;95.60
6439;DHT22;3252;52.540;13.290;2024-02-15T09:59:21;22.60;95.60
6439;DHT22;3252;52.540;13.290;2024-02-15T10:01:25;22.60;95.60
6439;DHT22;3252;52.540;13.290;2024-02-15T10:03:30;22.60;95.70
6439;DHT22;3252;52.540;13.290;2024-02-15T10:05:33;22.60;95.70
6439;DHT22;3252;52.540;13.290;2024-02-15T10:07:35;22.60;95.70
6439;DHT22;3252;52.540;13.290;2024-02-15T10:09:37;22.60;95.70
6439;DHT22;3252;52.540;13.290;2024-02-15T10:11:53;22.60;95.70
6439;DHT22;3252;52.540;13.290;2024-02-15T10:14:10;22.60;95.80
6439;DHT22;3252;52.540;13.290;2024-02-15T10:16:16;22.60;95.80
6439;DHT22;3252;52.540;13.290;2024-02-15T10:18:20;22.60;95.80
6439;DHT22;3252;52.540;13.290;2024-02-15T10:20:24;22.60;95.80
6439;DHT22;3252;52.540;13.290;2024-02-15T10:22:27;22.60;95.80
6439;DHT22;3252;52.540;13.290;2024-02-15T10:24:29;22.60;95.70
6439;DHT22;3252;52.540;13.290;2024-02-15T10:26:31;22.60;95.80
6439;DHT22;3252;52.540;13.290;2024-02-15T10:28:33;22.70;95.90
6439;DHT22;3252;52.540;13.290;2024-02-15T10:30:36;22.60;95.80
6439;DHT22;3252;52.540;13.290;2024-02-15T10:32:38;22.70;95.90
6439;DHT22;3252;52.540;13.290;2024-02-15T10:34:44;22.70;96.00
6439;DHT22;3252;52.540;13.290;2024-02-15T10:36:48;22.70;95.90
6439;DHT22;3252;52.540;13.290;2024-02-15T10:38:50;22.70;94.70
6439;DHT22;3252;52.540;13.290;2024-02-15T10:41:03;22.70;94.40
6439;DHT22;3252;52.540;13.290;2024-02-15T10:43:06;22.70;94.50
6439;DHT22;3252;52.540;13.290;2024-02-15T10:45:09;22.60;94.70
6439;DHT22;3252;52.540;13.290;2024-02-15T10:47:12;22.70;94.90
6439;DHT22;3252;52.540;13.290;2024-02-15T10:49:15;22.70;95.00
6439;DHT22;3252;52.540;13.290;2024-02-15T10:51:16;22.70;95.00
6439;DHT22;3252;52.540;13.290;2024-02-15T10:53:23;22.80;95.00
6439;DHT22;3252;52.540;13.290;2024-02-15T10:55:37;22.80;95.40
6439;DHT22;3252;52.540;13.290;2024-02-15T10:57:46;22.90;95.20
6439;DHT22;3252;52.540;13.290;2024-02-15T10:59:55;22.90;95.10
6439;DHT22;3252;52.540;13.290;2024-02-15T11:01:59;23.00;95.10
6439;DHT22;3252;52.540;13.290;2024-02-15T11:04:07;23.00;95.10
6439;DHT22;3252;52.540;13.290;2024-02-15T11:06:09;23.00;95.10
6439;DHT22;3252;52.540;13.290;2024-02-15T11:08:13;23.10;95.10
6439;DHT22;3252;52.540;13.290;2024-02-15T11:10:19;23.10;95.00
6439;DHT22;3252;52.540;13.290;2024-02-15T11:12:21;23.10;95.10
6439;DHT22;3252;52.540;13.290;2024-02-15T11:14:25;23.10;95.30
6439;DHT22;3252;52.540;13.290;2024-02-15T11:16:39;23.10;95.20
6439;DHT22;3252;52.540;13.290;2024-02-15T11:18:44;23.00;95.10
6439;DHT22;3252;52.540;13.290;2024-02-15T11:20:46;23.00;95.10
6439;DHT22;3252;52.540;13.290;2024-02-15T11:22:56;23.00;95.00
6439;DHT22;3252;52.540;13.290;2024-02-15T11:24:58;23.00;95.00
6439;DHT22;3252;52.540;13.290;2024-02-15T11:27:02;23.00;95.00
6439;DHT22;3252;52.540;13.290;2024-02-15T11:29:05;23.00;95.00
6439;DHT22;3252;52.540;13.290;2024-02-15T11:33:52;22.90;94.90
6439;DHT22;3252;52.540;13.290;2024-02-15T11:36:02;22.90;95.00
6439;DHT22;3252;52.540;13.290;2024-02-15T11:38:06;22.80;95.00
6439;DHT22;3252;52.540;13.290;2024-02-15T11:40:10;22.80;95.00
6439;DHT22;3252;52.540;13.290;2024-02-15T11:42:28;22.80;95.10
6439;DHT22;3252;52.540;13.290;2024-02-15T11:44:30;22.80;95.10
6439;DHT22;3252;52.540;13.290;2024-02-15T11:46:33;22.70;95.10
6439;DHT22;3252;52.540;13.290;2024-02-15T11:48:36;22.70;95.10
6439;DHT22;3252;52.540;13.290;2024-02-15T11:50:40;22.70;95.10
6439;DHT22;3252;52.540;13.290;2024-02-15T11:52:43;22.70;95.10
6439;DHT22;3252;52.540;13.290;2024-02-15T11:54:44;22.70;95.30
6439;DHT22;3252;52.540;13.290;2024-02-15T11:56:55;22.70;95.30
6439;DHT22;3252;52.540;13.290;2024-02-15T11:59:12;22.70;95.40
6439;DHT22;3252;52.540;13.290;2024-02-15T12:01:29;22.60;95.50
6439;DHT22;3252;52.540;13.290;2024-02-15T12:03:52;22.60;95.40
6439;DHT22;3252;52.540;13.290;2024-02-15T12:06:17;22.50;95.40
6439;DHT22;3252;52.540;13.290;2024-02-15T12:08:37;22.50;95.50
6439;DHT22;3252;52.540;13.290;2024-02-15T12:10:57;22.40;95.60
6439;DHT22;3252;52.540;13.290;2024-02-15T12:13:17;22.40;95.70
6439;DHT22;3252;52.540;13.290;2024-02-15T12:15:39;22.40;95.80
6439;DHT22;3252;52.540;13.290;2024-02-15T12:18:13;22.30;95.80
6439;DHT22;3252;52.540;13.290;2024-02-15T12:20:33;22.30;95.90
6439;DHT22;3252;52.540;13.290;2024-02-15T12:22:40;22.30;96.00
6439;DHT22;3252;52.540;13.290;2024-02-15T12:24:43;22.20;95.90
6439;DHT22;3252;52.540;13.290;2024-02-15T12:26:45;22.20;95.90
6439;DHT22;3252;52.540;13.290;2024-02-15T12:28:50;22.20;96.10
6439;DHT22;3252;52.540;13.290;2024-02-15T12:30:57;22.20;96.10
6439;DHT22;3252;52.540;13.290;2024-02-15T12:33:09;22.20;96.20
6439;DHT22;3252;52.540;13.290;2024-02-15T12:35:14;22.20;96.10
6439;DHT22;3252;52.540;13.290;2024-02-15T12:37:19;22.10;96.10
6439;DHT22;3252;52.540;13.290;2024-02-15T12:39:25;22.10;96.20
6439;DHT22;3252;52.540;13.290;2024-02-15T12:41:26;22.10;96.10
6439;DHT22;3252;52.540;13.290;2024-02-15T12:43:28;22.10;96.10
6439;DHT22;3252;52.540;13.290;2024-02-15T12:45:32;22.10;96.10
6439;DHT22;3252;52.540;13.290;2024-02-15T12:47:39;22.10;96.20
6439;DHT22;3252;52.540;13.290;2024-02-15T12:49:41;22.00;96.30
6439;DHT22;3252;52.540;13.290;2024-02-15T12:51:50;22.00;96.30
6439;DHT22;3252;52.540;13.290;2024-02-15T12:53:53;22.10;96.50
6439;DHT22;3252;52.540;13.290;2024-02-15T12:55:55;22.10;96.50
6439;DHT22;3252;52.540;13.290;2024-02-15T12:57:57;22.00;96.40
6439;DHT22;3252;52.540;13.290;2024-02-15T13:00:00;22.00;96.50
6439;DHT22;3252;52.540;13.290;2024-02-15T13:02:11;22.00;96.50
6439;DHT22;3252;52.540;13.290;2024-02-15T13:04:23;22.00;96.60
6439;DHT22;3252;52.540;13.290;2024-02-15T13:06:26;22.00;96.40
6439;DHT22;3252;52.540;13.290;2024-02-15T13:08:29;22.00;96.60
6439;DHT22;3252;52.540;13.290;2024-02-15T13:10:32;22.00;96.50
6439;DHT22;3252;52.540;13.290;2024-02-15T13:12:34;22.00;96.60
6439;DHT22;3252;52.540;13.290;2024-02-15T13:14:37;21.90;96.60
6439;DHT22;3252;52.540;13.290;2024-02-15T13:16:39;21.90;96.60
6439;DHT22;3252;52.540;13.290;2024-02-15T13:18:41;22.00;96.60
6439;DHT22;3252;52.540;13.290;2024-02-15T13:20:46;22.00;96.70
6439;DHT22;3252;52.540;13.290;2024-02-15T13:22:50;22.00;96.50